Time;durP1;ratioP1;P1;durP2;ratioP2;P2;SDS_P1;SDS_P2;PMS_P1;PMS_P2;Temp;Humidity;BMP_temperature;BMP_pressure;BME280_temperature;BME280_humidity;BME280_pressure;Samples;Min_cycle;Max_cycle;Signal;HPM_P1;HPM_P2
2021/08/09 00:00:33;;;;;;;7.57;4.73;;;;;;;13.71;81.57;101181.34;2107016;28;20024;-60
2021/08/09 00:01:33;;;;;;;12.13;4.70;;;;;;;13.70;81.86;101190.16;2098627;28;20160;-60
2021/08/09 00:02:33;;;;;;;9.20;5.43;;;;;;;13.68;81.84;101186.78;2098750;28;20065;-60
2021/08/09 00:03:33;;;;;;;11.00;4.53;;;;;;;13.65;82.11;101188.59;2106925;28;20488;-61
2021/08/09 00:04:36;;;;;;;9.27;4.10;;;;;;;13.62;82.24;101194.00;2106917;28;20021;-61
2021/08/09 00:05:37;;;;;;;7.72;5.15;;;;;;;13.61;81.96;101192.31;2107509;28;20036;-60
2021/08/09 00:06:37;;;;;;;13.27;4.80;;;;;;;13.63;81.87;101187.84;2115592;28;20024;-62
2021/08/09 00:07:37;;;;;;;10.03;3.60;;;;;;;13.67;82.05;101193.78;2106986;28;20054;-60
2021/08/09 00:08:37;;;;;;;8.07;4.20;;;;;;;13.68;81.93;101195.47;2115209;28;20420;-61
2021/08/09 00:09:37;;;;;;;6.33;3.37;;;;;;;13.67;81.90;101195.53;2115467;28;20476;-60
2021/08/09 00:10:38;;;;;;;6.20;3.23;;;;;;;13.67;81.99;101195.53;2090380;28;20036;-60
2021/08/09 00:11:38;;;;;;;6.87;4.00;;;;;;;13.65;81.97;101193.84;2082209;28;20456;-61
2021/08/09 00:12:38;;;;;;;10.73;3.60;;;;;;;13.66;82.23;101197.34;2090284;28;20457;-61
2021/08/09 00:13:38;;;;;;;7.03;3.90;;;;;;;13.66;81.60;101194.72;2098490;28;20114;-60
2021/08/09 00:14:39;;;;;;;8.20;4.57;;;;;;;13.64;81.61;101201.78;2098512;28;20476;-61
2021/08/09 00:15:40;;;;;;;7.57;4.30;;;;;;;13.62;81.77;101199.25;2098570;28;20030;-60
2021/08/09 00:16:40;;;;;;;9.33;4.37;;;;;;;13.57;81.74;101198.63;2098687;28;20520;-60
2021/08/09 00:17:40;;;;;;;9.05;3.83;;;;;;;13.54;82.01;101197.94;2098582;28;20027;-61
2021/08/09 00:18:45;;;;;;;11.70;4.00;;;;;;;13.51;82.27;101204.16;2106923;28;20020;-60
2021/08/09 00:19:45;;;;;;;9.95;4.32;;;;;;;13.49;82.45;101200.78;2115275;28;20582;-60
2021/08/09 00:20:46;;;;;;;7.10;4.10;;;;;;;13.48;82.19;101197.31;2107509;28;20026;-62
2021/08/09 00:21:46;;;;;;;7.20;4.20;;;;;;;13.47;82.80;101199.97;2106931;28;20012;-60
2021/08/09 00:22:46;;;;;;;12.43;4.80;;;;;;;13.47;82.24;101198.19;2098655;28;20488;-61
2021/08/09 00:23:47;;;;;;;10.60;4.53;;;;;;;13.49;82.25;101203.41;2106730;28;20063;-60
2021/08/09 00:24:47;;;;;;;7.82;4.50;;;;;;;13.46;82.29;101203.50;2106937;28;20024;-60
2021/08/09 00:25:47;;;;;;;13.73;4.30;;;;;;;13.46;82.53;101206.13;2115359;28;20039;-62
2021/08/09 00:26:48;;;;;;;10.47;4.20;;;;;;;13.45;82.56;101204.44;2106929;28;20086;-59
2021/08/09 00:27:48;;;;;;;5.53;4.00;;;;;;;13.42;82.80;101202.84;2106895;28;20032;-60
2021/08/09 00:28:49;;;;;;;6.90;4.50;;;;;;;13.42;82.74;101201.97;2106888;28;20032;-60
2021/08/09 00:29:49;;;;;;;10.67;3.97;;;;;;;13.42;82.62;101192.34;2106948;28;20058;-61
2021/08/09 00:30:49;;;;;;;10.40;5.43;;;;;;;13.43;82.40;101199.28;2090140;28;20344;-61
2021/08/09 00:31:49;;;;;;;9.63;4.53;;;;;;;13.45;82.67;101201.81;2082012;28;20017;-60
2021/08/09 00:32:50;;;;;;;8.83;4.37;;;;;;;13.43;82.49;101201.91;2106659;28;20024;-60
2021/08/09 00:33:50;;;;;;;6.97;4.00;;;;;;;13.42;82.46;101201.97;2106825;28;20134;-60
2021/08/09 00:34:50;;;;;;;8.53;4.37;;;;;;;13.38;82.15;101207.34;2115302;28;20026;-60
2021/08/09 00:35:50;;;;;;;11.70;5.17;;;;;;;13.35;82.57;101202.25;2115870;28;20384;-60
2021/08/09 00:36:50;;;;;;;11.43;4.50;;;;;;;13.33;83.05;101193.63;2115932;28;20026;-60
2021/08/09 00:37:50;;;;;;;11.43;4.67;;;;;;;13.32;83.22;101199.81;2115216;28;20020;-60
2021/08/09 00:38:51;;;;;;;4.63;4.13;;;;;;;13.29;83.10;101213.06;2098478;28;20052;-60
2021/08/09 00:39:51;;;;;;;7.63;4.13;;;;;;;13.27;82.67;101199.16;2098427;28;20472;-60
2021/08/09 00:40:51;;;;;;;8.60;4.50;;;;;;;13.27;82.73;101204.41;2090104;28;20028;-60
2021/08/09 00:41:51;;;;;;;10.90;4.30;;;;;;;13.27;83.00;101194.78;2098405;28;20023;-60
2021/08/09 00:42:52;;;;;;;5.67;3.90;;;;;;;13.27;82.56;101196.53;2106615;28;20476;-59
2021/08/09 00:43:52;;;;;;;6.17;4.10;;;;;;;13.26;82.96;101205.34;2106584;28;20036;-61
2021/08/09 00:44:52;;;;;;;7.70;4.13;;;;;;;13.26;82.97;101200.09;2106694;28;20027;-61
2021/08/09 00:45:52;;;;;;;8.93;4.67;;;;;;;13.24;82.94;101191.47;2106634;28;20051;-61
2021/08/09 00:46:53;;;;;;;10.73;4.60;;;;;;;13.22;82.88;101196.78;2115125;28;20023;-60
2021/08/09 00:47:53;;;;;;;12.05;4.85;;;;;;;13.19;83.33;101196.06;2114901;28;20061;-62
2021/08/09 00:48:53;;;;;;;9.60;4.40;;;;;;;13.17;82.91;101200.53;2098223;28;20037;-61
2021/08/09 00:49:54;;;;;;;9.03;4.53;;;;;;;13.19;82.79;101199.53;2106569;28;20480;-60
2021/08/09 00:50:54;;;;;;;8.93;4.50;;;;;;;13.20;83.28;101208.22;2115041;28;20460;-60
2021/08/09 00:51:55;;;;;;;6.83;4.70;;;;;;;13.19;83.45;101201.31;2106689;28;20066;-61
2021/08/09 00:52:55;;;;;;;5.88;4.28;;;;;;;13.20;82.85;101203.00;2098300;28;20055;-60
2021/08/09 00:53:55;;;;;;;11.33;4.27;;;;;;;13.21;83.15;101200.31;2081806;28;20025;-61
2021/08/09 00:54:55;;;;;;;10.67;4.20;;;;;;;13.21;82.98;101197.69;2089969;28;20624;-60
2021/08/09 00:55:56;;;;;;;8.10;5.57;;;;;;;13.18;82.81;101194.38;2098106;28;20419;-61
2021/08/09 00:56:56;;;;;;;11.53;4.33;;;;;;;13.17;83.23;101195.31;2098228;28;20044;-60
2021/08/09 00:57:56;;;;;;;9.13;4.87;;;;;;;13.18;82.87;101194.38;2098240;28;20461;-60
2021/08/09 00:58:58;;;;;;;7.40;5.20;;;;;;;13.17;83.14;101203.16;2114915;28;20476;-60
2021/08/09 00:59:58;;;;;;;9.85;4.97;;;;;;;13.16;82.78;101206.69;2106577;28;20052;-60
2021/08/09 01:00:58;;;;;;;14.57;4.83;;;;;;;13.12;83.11;101201.63;2098183;28;20029;-60
2021/08/09 01:01:59;;;;;;;8.70;5.50;;;;;;;13.11;82.87;101194.66;2098246;28;20020;-60
2021/08/09 01:02:59;;;;;;;9.73;5.77;;;;;;;13.11;83.07;101204.31;2089877;28;20017;-61
2021/08/09 01:04:00;;;;;;;15.93;5.43;;;;;;;13.08;82.96;101200.06;2090043;28;20021;-60
2021/08/09 01:05:01;;;;;;;;;;;;;;;13.06;83.21;101198.41;2098795;28;20028;-62
2021/08/09 01:06:01;;;;;;;8.70;2.80;;;;;;;13.04;83.27;101198.50;2115000;28;19914;-62
2021/08/09 01:07:02;;;;;;;9.47;4.87;;;;;;;13.04;83.16;101203.75;2115045;28;20019;-63
2021/08/09 01:08:20;;;;;;;11.18;3.95;;;;;;;13.04;82.71;101201.13;2106295;28;20016;-62
2021/08/09 01:09:27;;;;;;;8.75;3.97;;;;;;;13.03;82.85;101207.28;2115059;28;20102;-62
2021/08/09 01:10:52;;;;;;;7.57;4.05;;;;;;;13.02;83.32;101205.59;2106553;28;20070;-62
2021/08/09 01:12:04;;;;;;;10.65;4.40;;;;;;;13.02;83.08;101202.97;2110039;28;20555;-61
2021/08/09 01:13:13;;;;;;;10.43;4.95;;;;;;;13.02;83.08;101205.59;2100243;28;20066;-61
2021/08/09 01:14:27;;;;;;;8.48;3.97;;;;;;;12.99;82.70;101209.19;2092949;28;20111;-62
2021/08/09 01:15:30;;;;;;;13.77;5.82;;;;;;;12.97;83.62;101207.56;2093919;28;20017;-61
2021/08/09 01:16:32;;;;;;;16.02;4.15;;;;;;;12.96;83.21;101206.72;2090690;28;20513;-60
2021/08/09 01:17:34;;;;;;;8.18;5.07;;;;;;;12.97;83.14;101208.41;2074272;28;20034;-61
2021/08/09 01:18:36;;;;;;;7.25;4.40;;;;;;;12.98;82.65;101207.50;2082417;28;20021;-61
2021/08/09 01:20:14;;;;;;;10.07;4.88;;;;;;;13.01;83.17;101201.28;2098452;28;20028;-62
2021/08/09 01:21:14;;;;;;;8.32;4.18;;;;;;;12.97;82.94;101204.97;2111596;28;20514;-62
2021/08/09 01:22:21;;;;;;;6.10;3.83;;;;;;;12.98;82.55;101204.88;2100071;28;20074;-62
2021/08/09 01:23:27;;;;;;;10.75;5.13;;;;;;;12.96;82.66;101208.47;2107292;28;20042;-61
2021/08/09 01:24:33;;;;;;;8.82;4.38;;;;;;;12.93;82.97;101206.84;2106390;28;20451;-61
2021/08/09 01:25:39;;;;;;;7.75;4.47;;;;;;;12.91;83.02;101202.63;2107537;28;20103;-61
2021/08/09 01:26:47;;;;;;;9.98;4.32;;;;;;;12.91;83.55;101197.38;2106377;28;20408;-61
2021/08/09 01:27:50;;;;;;;8.55;4.40;;;;;;;12.89;82.90;101200.06;2092201;28;20120;-62
2021/08/09 01:28:53;;;;;;;6.05;3.88;;;;;;;12.91;82.98;101200.84;2090541;28;20029;-62
2021/08/09 01:29:53;;;;;;;5.43;4.03;;;;;;;12.90;83.24;101211.41;2106343;28;20032;-61
2021/08/09 01:30:55;;;;;;;9.83;5.17;;;;;;;12.91;83.11;101202.63;2098057;28;20028;-61
2021/08/09 01:31:55;;;;;;;9.52;4.50;;;;;;;12.91;83.35;101207.84;2090062;28;20025;-61
2021/08/09 01:32:56;;;;;;;7.57;5.30;;;;;;;12.86;83.06;101201.06;2089987;28;20020;-61
2021/08/09 01:33:56;;;;;;;11.10;4.47;;;;;;;12.85;82.97;101204.59;2106294;28;20034;-62
2021/08/09 01:34:56;;;;;;;7.90;4.30;;;;;;;12.82;83.38;101204.75;2106282;28;20290;-62
2021/08/09 01:35:57;;;;;;;9.57;4.20;;;;;;;12.81;83.52;101210.03;2106374;28;20020;-60
2021/08/09 01:36:58;;;;;;;9.33;4.57;;;;;;;12.80;83.46;101205.75;2097993;28;20099;-62
2021/08/09 01:37:59;;;;;;;5.80;4.00;;;;;;;12.80;83.24;101206.56;2106276;28;20067;-62
2021/08/09 01:39:00;;;;;;;9.43;4.30;;;;;;;12.81;83.44;101205.66;2106209;28;20016;-62
2021/08/09 01:40:00;;;;;;;;;;;;;;;12.80;83.65;101196.09;2090336;28;20103;-62
2021/08/09 01:41:01;;;;;;;4.43;3.23;;;;;;;12.83;83.39;101200.38;2097955;28;19915;-61
2021/08/09 01:42:01;;;;;;;10.63;3.93;;;;;;;12.86;83.70;101201.06;2097834;28;20028;-62
2021/08/09 01:43:01;;;;;;;12.83;4.27;;;;;;;12.87;83.27;101197.50;2106289;28;20032;-60
2021/08/09 01:44:03;;;;;;;5.60;3.77;;;;;;;12.89;82.94;101197.44;2114639;28;20055;-61
2021/08/09 01:45:04;;;;;;;7.55;3.63;;;;;;;12.91;83.00;101205.22;2097808;28;20024;-61
2021/08/09 01:46:05;;;;;;;6.10;3.40;;;;;;;12.90;82.70;101199.13;2098072;28;20124;-61
2021/08/09 01:47:05;;;;;;;9.97;3.03;;;;;;;12.89;83.06;101210.53;2097800;28;20035;-61
2021/08/09 01:48:05;;;;;;;8.07;3.00;;;;;;;12.88;83.13;101209.72;2089590;28;20516;-62
2021/08/09 01:49:06;;;;;;;9.48;5.25;;;;;;;12.91;82.89;101213.94;2097863;28;20115;-60
2021/08/09 01:50:06;;;;;;;6.27;4.27;;;;;;;12.92;83.00;101220.88;2098256;28;20102;-60
2021/08/09 01:51:07;;;;;;;5.75;3.17;;;;;;;12.92;82.37;101210.41;2089570;28;20071;-60
2021/08/09 01:52:07;;;;;;;6.20;3.80;;;;;;;12.93;82.96;101212.09;2089601;28;20504;-61
2021/08/09 01:53:07;;;;;;;6.77;4.27;;;;;;;12.92;83.19;101214.78;2081344;28;20037;-61
2021/08/09 01:54:08;;;;;;;5.30;4.00;;;;;;;12.93;82.96;101211.25;2081383;28;20041;-61
2021/08/09 01:55:09;;;;;;;6.78;3.58;;;;;;;12.96;82.63;101216.34;2081466;28;20594;-60
2021/08/09 01:56:10;;;;;;;8.57;3.67;;;;;;;12.99;82.89;101214.44;2081449;28;20400;-60
2021/08/09 01:57:10;;;;;;;10.43;3.42;;;;;;;12.98;82.85;101204.03;2081147;28;20020;-62
2021/08/09 01:58:10;;;;;;;7.23;3.47;;;;;;;12.96;83.09;101217.19;2097827;28;20025;-61
2021/08/09 01:59:10;;;;;;;4.87;3.67;;;;;;;12.97;82.85;101215.44;2106955;28;20027;-59
2021/08/09 02:00:13;;;;;;;11.80;3.43;;;;;;;12.95;83.33;101214.66;2106715;28;20020;-62
2021/08/09 02:01:14;;;;;;;5.95;3.72;;;;;;;12.91;83.14;101216.56;2106141;28;20062;-61
2021/08/09 02:02:27;;;;;;;6.23;3.93;;;;;;;12.88;83.24;101220.19;2097968;28;20016;-61
2021/08/09 02:03:27;;;;;;;8.70;3.42;;;;;;;12.86;83.15;101221.16;2091167;28;20466;-61
2021/08/09 02:04:28;;;;;;;12.80;4.43;;;;;;;12.87;83.62;101215.84;2089464;28;20025;-60
2021/08/09 02:05:28;;;;;;;10.60;3.40;;;;;;;12.86;83.71;101216.78;2106146;28;20063;-60
2021/08/09 02:06:28;;;;;;;4.90;2.67;;;;;;;12.90;83.93;101221.88;2106194;28;20077;-61
2021/08/09 02:07:28;;;;;;;12.07;4.13;;;;;;;12.90;83.74;101222.72;2106147;28;20407;-61
2021/08/09 02:08:28;;;;;;;6.50;2.57;;;;;;;12.89;83.34;101221.00;2105984;28;20048;-59
2021/08/09 02:09:29;;;;;;;8.63;4.73;;;;;;;12.93;84.13;101224.34;2089486;28;20025;-61
2021/08/09 02:10:30;;;;;;;13.05;4.85;;;;;;;12.92;83.59;101222.63;2097813;28;20032;-61
2021/08/09 02:11:44;;;;;;;10.95;4.50;;;;;;;12.94;83.58;101218.19;2106240;28;20024;-61
2021/08/09 02:12:54;;;;;;;8.50;4.05;;;;;;;12.95;83.52;101230.34;2099629;28;20040;-60
2021/08/09 02:13:58;;;;;;;6.38;3.17;;;;;;;12.95;83.60;101230.34;2090962;28;20096;-61
2021/08/09 02:14:58;;;;;;;7.05;3.78;;;;;;;12.95;83.52;101225.13;2091197;28;20036;-62
2021/08/09 02:16:10;;;;;;;11.27;5.00;;;;;;;12.94;83.50;101231.28;2089578;28;20025;-60
2021/08/09 02:17:16;;;;;;;13.68;5.05;;;;;;;12.94;83.73;101223.44;2076072;28;20056;-60
2021/08/09 02:18:45;;;;;;;10.23;4.72;;;;;;;12.91;83.70;101227.06;2092178;28;20096;-60
2021/08/09 02:19:57;;;;;;;5.70;3.95;;;;;;;12.92;83.59;101225.25;2101630;28;20444;-62
2021/08/09 02:20:59;;;;;;;13.35;4.90;;;;;;;12.94;83.79;101228.66;2099401;28;20060;-61
2021/08/09 02:22:09;;;;;;;8.80;4.70;;;;;;;12.95;83.70;101225.13;2089494;28;20032;-61
2021/08/09 02:23:13;;;;;;;6.90;4.22;;;;;;;12.93;83.55;101217.34;2083867;28;20033;-60
2021/08/09 02:24:46;;;;;;;8.20;4.88;;;;;;;12.98;83.23;101220.59;2082490;28;20026;-60
2021/08/09 02:25:48;;;;;;;9.70;4.47;;;;;;;12.96;83.58;101217.19;2056477;28;20035;-60
2021/08/09 02:26:54;;;;;;;9.90;3.97;;;;;;;12.95;83.66;101220.75;2080488;28;20033;-61
2021/08/09 02:27:58;;;;;;;6.93;4.72;;;;;;;12.94;83.74;101219.06;2090157;28;20064;-60
2021/08/09 02:29:07;;;;;;;7.97;4.00;;;;;;;12.96;83.47;101225.06;2098786;28;20029;-61
2021/08/09 02:30:08;;;;;;;8.82;4.68;;;;;;;12.96;83.78;101219.81;2098838;28;20035;-61
2021/08/09 02:31:08;;;;;;;;;;;;;;;12.96;84.11;101221.56;2089935;28;20103;-61
2021/08/09 02:32:09;;;;;;;6.03;3.45;;;;;;;12.95;83.75;101219.88;2092230;28;20370;-61
2021/08/09 02:33:09;;;;;;;5.30;4.07;;;;;;;12.94;84.05;101213.81;2097861;28;20133;-61
2021/08/09 02:34:10;;;;;;;10.37;5.37;;;;;;;12.94;84.06;101223.44;2097587;28;20050;-60
2021/08/09 02:35:11;;;;;;;7.32;4.00;;;;;;;12.94;83.96;101218.19;2089318;28;20025;-60
2021/08/09 02:36:11;;;;;;;8.38;5.70;;;;;;;12.96;83.86;101221.56;2097938;28;20075;-61
2021/08/09 02:37:11;;;;;;;8.60;5.40;;;;;;;12.94;84.30;101224.28;2089364;28;20068;-61
2021/08/09 02:38:12;;;;;;;5.63;3.93;;;;;;;12.95;83.67;101225.97;2081125;28;20104;-61
2021/08/09 02:39:12;;;;;;;10.17;3.90;;;;;;;12.95;84.06;101212.03;2081261;28;20032;-62
2021/08/09 02:40:13;;;;;;;7.05;4.25;;;;;;;12.94;84.15;101213.81;2081209;28;20464;-60
2021/08/09 02:41:13;;;;;;;10.68;4.53;;;;;;;12.95;84.00;101214.66;2073105;28;20060;-61
2021/08/09 02:42:13;;;;;;;3.80;3.47;;;;;;;12.98;83.96;101219.75;2072951;28;20028;-61
2021/08/09 02:43:13;;;;;;;7.67;4.43;;;;;;;13.01;83.84;101214.38;2089315;28;20055;-62
2021/08/09 02:44:14;;;;;;;13.20;4.97;;;;;;;13.04;83.43;101211.63;2081095;28;20043;-63
2021/08/09 02:45:15;;;;;;;8.23;4.57;;;;;;;13.05;83.85;101215.91;2089472;28;20017;-61
2021/08/09 02:46:15;;;;;;;7.95;4.63;;;;;;;13.04;83.20;101210.75;2097620;28;20016;-60
2021/08/09 02:47:15;;;;;;;8.27;4.27;;;;;;;13.05;83.40;101205.44;2089373;28;20032;-62
2021/08/09 02:48:16;;;;;;;7.93;4.37;;;;;;;13.05;83.46;101208.06;2081091;28;20060;-60
2021/08/09 02:49:16;;;;;;;8.27;4.53;;;;;;;13.05;83.59;101210.69;2072893;28;20054;-62
2021/08/09 02:50:16;;;;;;;7.40;4.73;;;;;;;13.06;83.89;101215.00;2073152;28;20021;-61
2021/08/09 02:51:18;;;;;;;16.43;5.07;;;;;;;13.07;83.53;101215.84;2090949;28;20283;-62
2021/08/09 02:52:18;;;;;;;9.98;4.38;;;;;;;13.07;83.50;101214.06;2091041;28;20499;-61
2021/08/09 02:53:19;;;;;;;9.52;5.25;;;;;;;13.07;83.64;101214.06;2082674;28;20025;-60
2021/08/09 02:54:19;;;;;;;10.65;4.25;;;;;;;13.07;84.06;101214.06;2082735;28;20013;-62
2021/08/09 02:55:20;;;;;;;7.13;4.68;;;;;;;13.07;83.61;101214.06;2082770;28;20033;-61
2021/08/09 02:56:23;;;;;;;6.93;3.97;;;;;;;13.07;83.81;101208.81;2090998;28;20363;-61
2021/08/09 02:57:23;;;;;;;11.57;5.28;;;;;;;13.11;83.68;101215.63;2091046;28;20017;-61
2021/08/09 02:58:24;;;;;;;6.07;4.22;;;;;;;13.10;83.74;101219.16;2099121;28;20052;-61
2021/08/09 02:59:24;;;;;;;10.40;4.20;;;;;;;13.10;83.60;101211.31;2099191;28;20020;-61
2021/08/09 03:00:24;;;;;;;7.80;4.13;;;;;;;13.10;83.94;101219.16;2082661;28;20021;-62
2021/08/09 03:01:26;;;;;;;12.70;4.90;;;;;;;13.10;83.86;101213.94;2082603;28;20017;-61
2021/08/09 03:02:27;;;;;;;10.15;3.78;;;;;;;13.11;83.90;101220.84;2082926;28;20109;-62
2021/08/09 03:03:28;;;;;;;8.65;4.35;;;;;;;13.11;83.43;101213.00;2082707;28;20026;-62
2021/08/09 03:04:28;;;;;;;9.00;4.68;;;;;;;13.12;83.97;101219.09;2090804;28;20461;-61
2021/08/09 03:05:28;;;;;;;14.50;4.10;;;;;;;13.10;83.52;101208.69;2082651;28;20029;-60
2021/08/09 03:06:28;;;;;;;11.33;4.00;;;;;;;13.12;83.71;101217.34;2090928;28;20159;-63
2021/08/09 03:07:28;;;;;;;10.27;4.43;;;;;;;13.13;83.49;101213.78;2090823;28;20021;-61
2021/08/09 03:08:30;;;;;;;11.63;4.03;;;;;;;13.14;83.25;101210.25;2098952;28;20040;-62
2021/08/09 03:09:30;;;;;;;8.50;4.38;;;;;;;13.13;83.52;101219.03;2107516;28;20028;-62
2021/08/09 03:10:31;;;;;;;10.80;4.73;;;;;;;13.13;83.50;101219.03;2107998;28;20020;-63
2021/08/09 03:11:33;;;;;;;14.57;4.30;;;;;;;13.13;83.44;101218.16;2107511;28;20089;-62
2021/08/09 03:12:33;;;;;;;9.73;4.55;;;;;;;13.12;83.67;101217.34;2107433;28;20469;-62
2021/08/09 03:13:34;;;;;;;7.30;3.90;;;;;;;13.12;83.40;101217.34;2107439;28;20059;-62
2021/08/09 03:14:34;;;;;;;11.45;5.00;;;;;;;13.10;83.55;101219.16;2090836;28;20033;-61
2021/08/09 03:15:35;;;;;;;8.77;4.80;;;;;;;13.08;83.44;101218.41;2099062;28;20024;-61
2021/08/09 03:16:35;;;;;;;6.95;4.07;;;;;;;13.07;83.60;101221.94;2090802;28;20029;-63
2021/08/09 03:17:37;;;;;;;13.30;4.17;;;;;;;13.06;83.99;101220.22;2082600;28;20030;-62
2021/08/09 03:18:37;;;;;;;9.05;4.35;;;;;;;13.08;83.52;101215.78;2099175;28;20032;-61
2021/08/09 03:19:38;;;;;;;6.50;4.30;;;;;;;13.09;83.43;101219.22;2107396;28;20141;-60
2021/08/09 03:20:38;;;;;;;5.60;4.23;;;;;;;13.09;83.76;101217.47;2107442;28;20016;-63
2021/08/09 03:21:38;;;;;;;9.67;4.40;;;;;;;13.10;83.51;101224.41;2107456;28;20054;-61
2021/08/09 03:22:38;;;;;;;6.03;3.30;;;;;;;13.08;83.50;101226.25;2107179;28;20382;-61
2021/08/09 03:23:38;;;;;;;14.67;4.10;;;;;;;13.04;83.47;101229.94;2090672;28;20063;-63
2021/08/09 03:24:39;;;;;;;9.57;4.33;;;;;;;13.04;83.89;101229.09;2090764;28;20017;-62
2021/08/09 03:25:39;;;;;;;7.20;3.67;;;;;;;13.06;83.92;101225.47;2099032;28;20024;-59
2021/08/09 03:26:39;;;;;;;10.37;4.43;;;;;;;13.09;83.38;101227.97;2090762;28;20033;-60
2021/08/09 03:27:40;;;;;;;8.20;5.33;;;;;;;13.13;83.55;101233.88;2082445;28;20410;-62
2021/08/09 03:28:40;;;;;;;8.50;4.37;;;;;;;13.11;83.56;101220.84;2082231;28;20089;-62
2021/08/09 03:29:40;;;;;;;6.87;3.53;;;;;;;13.12;83.69;101230.44;2090549;28;20126;-62
2021/08/09 03:30:40;;;;;;;9.37;4.47;;;;;;;13.12;83.55;101222.56;2107225;28;20020;-61
2021/08/09 03:31:40;;;;;;;10.13;4.20;;;;;;;13.12;83.62;101230.44;2098860;28;20028;-60
2021/08/09 03:32:41;;;;;;;9.50;5.60;;;;;;;13.11;83.58;101220.84;2098987;28;20035;-62
2021/08/09 03:33:41;;;;;;;9.70;4.60;;;;;;;13.10;83.73;101228.78;2107851;28;20020;-62
2021/08/09 03:34:41;;;;;;;5.97;4.10;;;;;;;13.07;83.49;101224.53;2107808;28;20476;-61
2021/08/09 03:35:41;;;;;;;10.17;4.73;;;;;;;13.06;83.77;101222.84;2107357;28;20158;-62
2021/08/09 03:36:42;;;;;;;7.27;4.90;;;;;;;13.07;83.81;101219.31;2098963;28;20028;-61
2021/08/09 03:37:42;;;;;;;10.73;4.57;;;;;;;13.05;84.10;101221.16;2098896;28;20130;-62
2021/08/09 03:38:42;;;;;;;8.03;4.60;;;;;;;13.03;83.89;101222.16;2098844;28;20017;-61
2021/08/09 03:39:42;;;;;;;11.13;4.90;;;;;;;13.02;84.32;101221.31;2107173;28;20071;-62
2021/08/09 03:40:42;;;;;;;10.80;4.97;;;;;;;13.02;83.78;101216.06;2107809;28;20427;-62
2021/08/09 03:41:43;;;;;;;9.40;4.77;;;;;;;13.03;83.69;101223.00;2107306;28;20023;-62
2021/08/09 03:42:43;;;;;;;12.30;4.43;;;;;;;13.03;84.23;101228.22;2098858;28;20028;-61
2021/08/09 03:43:43;;;;;;;13.93;5.83;;;;;;;13.03;83.68;101228.22;2107173;28;20090;-61
2021/08/09 03:44:43;;;;;;;8.67;5.00;;;;;;;13.01;84.04;101224.84;2107831;28;20161;-62
2021/08/09 03:45:44;;;;;;;7.37;4.83;;;;;;;12.99;84.11;101221.44;2107752;28;20098;-60
2021/08/09 03:46:44;;;;;;;10.07;4.50;;;;;;;12.98;84.14;101227.59;2107171;28;20031;-62
2021/08/09 03:47:44;;;;;;;5.97;4.73;;;;;;;12.98;84.23;101227.59;2098890;28;20032;-61
2021/08/09 03:48:44;;;;;;;7.97;5.10;;;;;;;12.99;84.36;101229.28;2098831;28;20523;-63
2021/08/09 03:49:44;;;;;;;5.70;4.33;;;;;;;12.99;84.16;101231.91;2090433;28;20131;-62
2021/08/09 03:50:45;;;;;;;9.60;4.57;;;;;;;13.01;84.10;101230.91;2090457;28;20417;-63
2021/08/09 03:51:45;;;;;;;8.27;5.40;;;;;;;13.01;84.03;101222.22;2107141;28;20028;-63
2021/08/09 03:52:49;;;;;;;9.57;5.30;;;;;;;13.02;84.22;101226.53;2107137;28;20134;-62
2021/08/09 03:53:49;;;;;;;8.32;4.80;;;;;;;13.01;84.08;101230.09;2090781;28;20021;-61
2021/08/09 03:54:49;;;;;;;12.40;5.47;;;;;;;13.00;85.07;101228.38;2090527;28;20098;-63
2021/08/09 03:55:49;;;;;;;6.57;4.90;;;;;;;13.00;84.47;101223.13;2098657;28;20016;-62
2021/08/09 03:56:49;;;;;;;6.80;4.03;;;;;;;13.02;84.39;101226.53;2107116;28;20027;-60
2021/08/09 03:57:50;;;;;;;9.20;5.57;;;;;;;13.00;84.82;101223.13;2107774;28;20016;-62
2021/08/09 03:58:50;;;;;;;8.90;4.50;;;;;;;13.01;84.42;101224.84;2107593;28;20050;-62
2021/08/09 03:59:50;;;;;;;11.63;4.73;;;;;;;13.01;84.42;101235.31;2107119;28;20024;-62
2021/08/09 04:00:50;;;;;;;7.07;3.67;;;;;;;13.03;84.59;101222.16;2107139;28;20032;-61
2021/08/09 04:01:50;;;;;;;9.27;5.40;;;;;;;13.04;84.33;101222.09;2107371;28;20038;-62
2021/08/09 04:02:51;;;;;;;13.07;5.70;;;;;;;13.06;84.92;101228.09;2107114;28;20024;-62
2021/08/09 04:03:51;;;;;;;11.33;5.13;;;;;;;13.07;84.34;101229.78;2107096;28;20022;-61
2021/08/09 04:04:51;;;;;;;8.70;4.70;;;;;;;13.04;84.33;101224.72;2098729;28;20020;-61
2021/08/09 04:05:51;;;;;;;7.23;5.30;;;;;;;13.05;84.43;101226.41;2098733;28;20127;-62
2021/08/09 04:06:51;;;;;;;6.77;5.03;;;;;;;13.05;84.55;101225.53;2098502;28;20094;-60
2021/08/09 04:07:53;;;;;;;11.70;5.97;;;;;;;13.02;84.76;101229.16;2082269;28;20026;-62
2021/08/09 04:08:53;;;;;;;13.45;7.22;;;;;;;13.01;84.97;101232.72;2098560;28;20345;-62
2021/08/09 04:09:54;;;;;;;9.27;4.90;;;;;;;13.01;84.56;101230.09;2107481;28;20032;-63
2021/08/09 04:10:54;;;;;;;12.85;5.05;;;;;;;13.01;85.23;101230.09;2098597;28;20069;-61
2021/08/09 04:11:54;;;;;;;8.53;4.70;;;;;;;13.02;85.02;101231.78;2082091;28;20536;-63
2021/08/09 04:12:54;;;;;;;11.33;5.70;;;;;;;13.02;84.79;101218.69;2090307;28;20020;-62
2021/08/09 04:13:57;;;;;;;10.83;6.00;;;;;;;13.06;85.00;101222.84;2106935;28;20024;-62
2021/08/09 04:14:57;;;;;;;8.85;5.03;;;;;;;13.07;84.57;101235.03;2098594;28;20381;-59
2021/08/09 04:15:57;;;;;;;7.53;5.03;;;;;;;13.06;84.56;101225.47;2098741;28;20052;-60
2021/08/09 04:16:57;;;;;;;13.70;4.93;;;;;;;13.07;84.70;101231.56;2106973;28;20031;-63
2021/08/09 04:17:57;;;;;;;9.53;5.33;;;;;;;13.08;84.54;101225.41;2107509;28;20103;-61
2021/08/09 04:18:58;;;;;;;7.97;4.70;;;;;;;13.09;84.37;101225.34;2098622;28;20446;-60
2021/08/09 04:19:58;;;;;;;10.73;5.00;;;;;;;13.09;84.52;101230.56;2098597;28;20024;-63
2021/08/09 04:20:58;;;;;;;8.07;4.43;;;;;;;13.11;84.62;101231.34;2106731;28;20102;-60
2021/08/09 04:21:58;;;;;;;10.93;5.73;;;;;;;13.13;84.60;101233.88;2098660;28;20028;-60
2021/08/09 04:22:58;;;;;;;11.97;5.07;;;;;;;13.12;84.77;101234.81;2098579;28;20094;-62
2021/08/09 04:23:59;;;;;;;6.53;3.90;;;;;;;13.15;84.33;101232.06;2098432;28;20477;-61
2021/08/09 04:25:01;;;;;;;9.60;5.43;;;;;;;13.17;84.56;101234.63;2098501;28;20065;-62
2021/08/09 04:26:01;;;;;;;11.90;5.85;;;;;;;13.17;84.42;101245.09;2106945;28;20493;-61
2021/08/09 04:27:01;;;;;;;9.27;4.87;;;;;;;13.16;84.47;101238.13;2106929;28;20028;-62
2021/08/09 04:28:02;;;;;;;9.33;5.03;;;;;;;13.15;84.89;101239.91;2106858;28;20024;-61
2021/08/09 04:29:02;;;;;;;10.00;5.10;;;;;;;13.14;84.99;101241.69;2106824;28;20102;-62
2021/08/09 04:30:03;;;;;;;8.90;5.00;;;;;;;13.13;84.57;101241.75;2106813;28;20027;-62
2021/08/09 04:31:03;;;;;;;;;;;;;;;13.14;84.73;101244.31;2090549;28;20566;-62
2021/08/09 04:32:16;;;;;;;5.10;3.63;;;;;;;13.14;84.81;101246.91;2090260;28;19966;-62
2021/08/09 04:33:16;;;;;;;5.97;4.63;;;;;;;13.17;85.15;101245.09;2106846;28;20489;-60
2021/08/09 04:34:16;;;;;;;9.43;5.43;;;;;;;13.14;85.26;101244.31;2106893;28;20035;-60
2021/08/09 04:35:17;;;;;;;6.93;4.80;;;;;;;13.17;84.73;101251.16;2098351;28;20107;-62
2021/08/09 04:36:17;;;;;;;4.13;3.83;;;;;;;13.18;84.92;101244.16;2090224;28;20028;-60
2021/08/09 04:37:19;;;;;;;8.50;5.60;;;;;;;13.18;84.55;101242.41;2081810;28;20017;-61
2021/08/09 04:38:19;;;;;;;11.73;4.97;;;;;;;13.19;85.22;101249.34;2074257;28;20026;-61
2021/08/09 04:39:20;;;;;;;8.47;4.87;;;;;;;13.18;85.08;101246.78;2090545;28;20430;-62
2021/08/09 04:40:20;;;;;;;15.20;5.70;;;;;;;13.19;85.18;101248.47;2098491;28;20020;-63
2021/08/09 04:41:20;;;;;;;9.23;5.13;;;;;;;13.20;84.95;101245.78;2090198;28;20040;-61
2021/08/09 04:42:20;;;;;;;6.57;4.37;;;;;;;13.21;85.17;101241.41;2098377;28;20410;-62
2021/08/09 04:43:20;;;;;;;14.00;4.77;;;;;;;13.22;85.14;101228.22;2098247;28;20030;-61
2021/08/09 04:44:21;;;;;;;9.90;5.23;;;;;;;13.22;85.14;101243.09;2106719;28;20493;-63
2021/08/09 04:45:21;;;;;;;10.27;5.40;;;;;;;13.22;85.16;101237.84;2107327;28;20014;-61
2021/08/09 04:46:21;;;;;;;5.73;4.70;;;;;;;13.26;85.38;101245.50;2106768;28;20050;-61